Terminal Aerodrome Forecast
Issued by NWS

Home | Current Version | Previous Version | Graphics & Text | Print | Product List | Glossary On
Versions: 1 2 3 4 5 6 7 8 9 10 11 12 13 14 15 16
170
FTUS43 KGRB 221738
TAFCWA
TAF
KCWA 221738Z 2218/2318 20010G18KT P6SM FEW040 SCT100
     FM230200 18009KT P6SM SCT080 SCT200 WS010/21035KT
     FM231600 19011G20KT P6SM FEW100 SCT200=

USA.gov is the U.S. government's official web portal to all federal, state and local government web resources and services.